Puto Island — XUTS7 — position and weather

sailwx.info

Track history (hours):
 
Tides and Currents Weather Stations Pressure Air Temp Water Temp Dewpoint Dewpoint Depression Visibility Wind Speed Wind Dir Waves Ship Positions

Puto Island

Last reported at 2015-Sep-03 02:19 UTC. Time now 2015-Sep-03 12:54 UTC.
Position N 40°17' E 122°03'.

Length 71 m; draft 4.5 m.

Type: Cargo ship. MMSI: 514198000.

Date/timePositionNaut miles runAvg speedWind from/ knotsBaromVisibWave heightAir tempDewpointWater temp
2015-Sep-03 02:19N 40°17' E 122°03'2 2.0
2015-Sep-03 01:25N 40°17' E 122°06'0 0.0
2015-Sep-03 00:31N 40°17' E 122°06'0 0.0
2015-Sep-02 23:31N 40°17' E 122°06'0 0.0
2015-Sep-02 22:31N 40°17' E 122°06'0 0.0
2015-Sep-02 21:31N 40°17' E 122°06'0 0.0
2015-Sep-02 20:19N 40°17' E 122°06'0 0.0
2015-Sep-02 19:25N 40°17' E 122°06'0 0.0
2015-Sep-02 18:19N 40°17' E 122°06'0 0.0
2015-Sep-02 17:25N 40°17' E 122°06'0 0.0
2015-Sep-02 16:25N 40°17' E 122°06'0 0.0
2015-Sep-02 15:31N 40°17' E 122°06'0 0.0
2015-Sep-02 14:31N 40°17' E 122°06'0 0.0
2015-Sep-02 13:31N 40°17' E 122°06'0 0.0
2015-Sep-02 12:31N 40°17' E 122°06'0 0.0
2015-Sep-02 11:07N 40°17' E 122°06'0 0.0
2015-Sep-02 08:18N 40°17' E 122°06'204 7.0
2015-Sep-01 03:03N 36°55' E 122°40'611.5
2015-Sep-01 02:33N 36°52' E 122°34'6 0.2
2015-Aug-31 01:19N 36°53' E 122°26'2 2.6
2015-Aug-31 00:34N 36°52' E 122°28'0 0.3
2015-Aug-30 23:34N 36°51' E 122°28'5 5.3
2015-Aug-30 22:33N 36°47' E 122°32'  
Track history (hours):
 
Tides and Currents Weather Stations Pressure Air Temp Water Temp Dewpoint Dewpoint Depression Visibility Wind Speed Wind Dir Waves Ship Positions

Puto Island

Last reported at 2015-Sep-03 02:19 UTC. Time now 2015-Sep-03 12:54 UTC.
Position N 40°17' E 122°03'.

Length 71 m; draft 4.5 m.

Type: Cargo ship. MMSI: 514198000.

Date/timePositionNaut miles runAvg speedWind from/ knotsBaromVisibWave heightAir tempDewpointWater temp
2015-Sep-03 02:19N 40°17' E 122°03'2 2.0
2015-Sep-03 01:25N 40°17' E 122°06'0 0.0
2015-Sep-03 00:31N 40°17' E 122°06'0 0.0
2015-Sep-02 23:31N 40°17' E 122°06'0 0.0
2015-Sep-02 22:31N 40°17' E 122°06'0 0.0
2015-Sep-02 21:31N 40°17' E 122°06'0 0.0
2015-Sep-02 20:19N 40°17' E 122°06'0 0.0
2015-Sep-02 19:25N 40°17' E 122°06'0 0.0
2015-Sep-02 18:19N 40°17' E 122°06'0 0.0
2015-Sep-02 17:25N 40°17' E 122°06'0 0.0
2015-Sep-02 16:25N 40°17' E 122°06'0 0.0
2015-Sep-02 15:31N 40°17' E 122°06'0 0.0
2015-Sep-02 14:31N 40°17' E 122°06'0 0.0
2015-Sep-02 13:31N 40°17' E 122°06'0 0.0
2015-Sep-02 12:31N 40°17' E 122°06'0 0.0
2015-Sep-02 11:07N 40°17' E 122°06'0 0.0
2015-Sep-02 08:18N 40°17' E 122°06'204 7.0
2015-Sep-01 03:03N 36°55' E 122°40'611.5
2015-Sep-01 02:33N 36°52' E 122°34'6 0.2
2015-Aug-31 01:19N 36°53' E 122°26'2 2.6
2015-Aug-31 00:34N 36°52' E 122°28'0 0.3
2015-Aug-30 23:34N 36°51' E 122°28'5 5.3
2015-Aug-30 22:33N 36°47' E 122°32'  

Dump ship's entire track history